sensor_id;sensor_type;location;lat;lon;timestamp;temperature;humidity
65369;HTU21D;51970;53.484;49.488;2023-09-19T00:01:48;11.09;89.83
65369;HTU21D;51970;53.484;49.488;2023-09-19T00:05:14;11.02;90.04
65369;HTU21D;51970;53.484;49.488;2023-09-19T00:08:41;10.98;89.80
65369;HTU21D;51970;53.484;49.488;2023-09-19T00:12:06;11.01;89.78
65369;HTU21D;51970;53.484;49.488;2023-09-19T00:15:43;11.01;89.83
65369;HTU21D;51970;53.484;49.488;2023-09-19T00:19:07;10.99;89.97
65369;HTU21D;51970;53.484;49.488;2023-09-19T00:22:34;10.99;90.12
65369;HTU21D;51970;53.484;49.488;2023-09-19T00:26:10;10.95;89.74
65369;HTU21D;51970;53.484;49.488;2023-09-19T00:29:37;10.89;90.08
65369;HTU21D;51970;53.484;49.488;2023-09-19T00:33:12;10.90;89.86
65369;HTU21D;51970;53.484;49.488;2023-09-19T00:36:44;10.89;89.76
65369;HTU21D;51970;53.484;49.488;2023-09-19T00:40:11;10.87;89.83
65369;HTU21D;51970;53.484;49.488;2023-09-19T00:43:36;10.88;90.18
65369;HTU21D;51970;53.484;49.488;2023-09-19T00:47:08;10.92;89.95
65369;HTU21D;51970;53.484;49.488;2023-09-19T00:50:42;10.90;89.72
65369;HTU21D;51970;53.484;49.488;2023-09-19T00:54:07;10.85;89.86
65369;HTU21D;51970;53.484;49.488;2023-09-19T00:57:36;10.86;89.91
65369;HTU21D;51970;53.484;49.488;2023-09-19T01:01:02;10.86;89.89
65369;HTU21D;51970;53.484;49.488;2023-09-19T01:04:40;10.83;89.62
65369;HTU21D;51970;53.484;49.488;2023-09-19T01:08:05;10.85;89.99
65369;HTU21D;51970;53.484;49.488;2023-09-19T01:11:46;10.95;90.30
65369;HTU21D;51970;53.484;49.488;2023-09-19T01:23:36;10.99;89.67
65369;HTU21D;51970;53.484;49.488;2023-09-19T01:30:51;11.00;89.59
65369;HTU21D;51970;53.484;49.488;2023-09-19T01:34:25;11.00;89.47
65369;HTU21D;51970;53.484;49.488;2023-09-19T01:37:59;11.03;89.70
65369;HTU21D;51970;53.484;49.488;2023-09-19T01:41:33;11.09;89.96
65369;HTU21D;51970;53.484;49.488;2023-09-19T01:48:58;11.15;90.02
65369;HTU21D;51970;53.484;49.488;2023-09-19T01:52:30;11.25;89.97
65369;HTU21D;51970;53.484;49.488;2023-09-19T01:56:05;11.27;89.58
65369;HTU21D;51970;53.484;49.488;2023-09-19T01:59:36;11.33;89.07
65369;HTU21D;51970;53.484;49.488;2023-09-19T02:03:02;11.32;88.66
65369;HTU21D;51970;53.484;49.488;2023-09-19T02:06:27;11.26;88.76
65369;HTU21D;51970;53.484;49.488;2023-09-19T02:09:52;11.23;89.21
65369;HTU21D;51970;53.484;49.488;2023-09-19T02:13:22;11.13;89.02
65369;HTU21D;51970;53.484;49.488;2023-09-19T02:16:46;11.00;88.81
65369;HTU21D;51970;53.484;49.488;2023-09-19T02:20:19;10.87;89.02
65369;HTU21D;51970;53.484;49.488;2023-09-19T02:23:54;10.81;89.45
65369;HTU21D;51970;53.484;49.488;2023-09-19T02:27:26;10.82;89.39
65369;HTU21D;51970;53.484;49.488;2023-09-19T02:31:01;10.86;89.68
65369;HTU21D;51970;53.484;49.488;2023-09-19T02:34:33;10.90;89.54
65369;HTU21D;51970;53.484;49.488;2023-09-19T02:37:57;10.93;88.99
65369;HTU21D;51970;53.484;49.488;2023-09-19T02:41:31;10.98;89.00
65369;HTU21D;51970;53.484;49.488;2023-09-19T02:44:55;11.05;88.73
65369;HTU21D;51970;53.484;49.488;2023-09-19T02:48:28;11.14;88.11
65369;HTU21D;51970;53.484;49.488;2023-09-19T02:51:53;11.23;87.68
65369;HTU21D;51970;53.484;49.488;2023-09-19T02:55:18;11.37;87.22
65369;HTU21D;51970;53.484;49.488;2023-09-19T02:58:52;11.51;86.70
65369;HTU21D;51970;53.484;49.488;2023-09-19T03:02:17;11.67;86.08
65369;HTU21D;51970;53.484;49.488;2023-09-19T03:05:41;11.83;85.46
65369;HTU21D;51970;53.484;49.488;2023-09-19T03:09:05;11.98;84.69
65369;HTU21D;51970;53.484;49.488;2023-09-19T03:12:29;12.20;84.00
65369;HTU21D;51970;53.484;49.488;2023-09-19T03:16:04;12.48;83.52
65369;HTU21D;51970;53.484;49.488;2023-09-19T03:19:28;12.90;82.18
65369;HTU21D;51970;53.484;49.488;2023-09-19T03:23:05;13.31;80.48
65369;HTU21D;51970;53.484;49.488;2023-09-19T03:26:30;13.62;79.75
65369;HTU21D;51970;53.484;49.488;2023-09-19T03:30:03;13.75;79.58
65369;HTU21D;51970;53.484;49.488;2023-09-19T03:33:41;13.70;79.72
65369;HTU21D;51970;53.484;49.488;2023-09-19T03:37:05;13.69;79.93
65369;HTU21D;51970;53.484;49.488;2023-09-19T03:40:39;13.77;79.79
65369;HTU21D;51970;53.484;49.488;2023-09-19T03:44:13;13.90;79.20
65369;HTU21D;51970;53.484;49.488;2023-09-19T03:47:38;14.08;78.69
65369;HTU21D;51970;53.484;49.488;2023-09-19T03:51:14;14.06;79.08
65369;HTU21D;51970;53.484;49.488;2023-09-19T03:54:46;14.24;78.70
65369;HTU21D;51970;53.484;49.488;2023-09-19T03:58:10;14.29;78.00
65369;HTU21D;51970;53.484;49.488;2023-09-19T04:01:42;14.34;78.38
65369;HTU21D;51970;53.484;49.488;2023-09-19T04:05:07;14.39;78.34
65369;HTU21D;51970;53.484;49.488;2023-09-19T04:08:42;14.45;78.46
65369;HTU21D;51970;53.484;49.488;2023-09-19T04:12:13;14.43;78.42
65369;HTU21D;51970;53.484;49.488;2023-09-19T04:15:37;14.57;77.70
65369;HTU21D;51970;53.484;49.488;2023-09-19T04:19:12;14.44;78.08
65369;HTU21D;51970;53.484;49.488;2023-09-19T04:22:47;14.38;78.02
65369;HTU21D;51970;53.484;49.488;2023-09-19T04:26:21;14.30;78.40
65369;HTU21D;51970;53.484;49.488;2023-09-19T04:29:46;14.20;78.84
65369;HTU21D;51970;53.484;49.488;2023-09-19T04:33:21;14.26;78.73
65369;HTU21D;51970;53.484;49.488;2023-09-19T04:36:52;14.44;78.23
65369;HTU21D;51970;53.484;49.488;2023-09-19T04:40:25;14.70;77.31
65369;HTU21D;51970;53.484;49.488;2023-09-19T04:43:50;14.86;76.60
65369;HTU21D;51970;53.484;49.488;2023-09-19T04:47:25;15.04;76.10
65369;HTU21D;51970;53.484;49.488;2023-09-19T04:50:57;15.04;75.16
65369;HTU21D;51970;53.484;49.488;2023-09-19T04:54:32;15.00;74.76
65369;HTU21D;51970;53.484;49.488;2023-09-19T04:58:06;15.00;74.81
65369;HTU21D;51970;53.484;49.488;2023-09-19T05:01:40;14.87;74.71
65369;HTU21D;51970;53.484;49.488;2023-09-19T05:05:14;14.77;74.66
65369;HTU21D;51970;53.484;49.488;2023-09-19T05:08:50;14.63;74.63
65369;HTU21D;51970;53.484;49.488;2023-09-19T05:12:46;14.66;74.44
65369;HTU21D;51970;53.484;49.488;2023-09-19T05:16:21;14.93;73.43
65369;HTU21D;51970;53.484;49.488;2023-09-19T05:19:46;15.12;72.63
65369;HTU21D;51970;53.484;49.488;2023-09-19T05:23:11;15.15;72.05
65369;HTU21D;51970;53.484;49.488;2023-09-19T05:26:38;15.07;72.29
65369;HTU21D;51970;53.484;49.488;2023-09-19T05:30:03;15.24;71.70
65369;HTU21D;51970;53.484;49.488;2023-09-19T05:33:39;15.71;69.98
65369;HTU21D;51970;53.484;49.488;2023-09-19T05:37:04;15.96;68.75
65369;HTU21D;51970;53.484;49.488;2023-09-19T05:40:39;16.19;68.23
65369;HTU21D;51970;53.484;49.488;2023-09-19T05:44:13;16.48;67.05
65369;HTU21D;51970;53.484;49.488;2023-09-19T05:47:48;16.73;65.36
65369;HTU21D;51970;53.484;49.488;2023-09-19T05:51:25;16.77;65.16
65369;HTU21D;51970;53.484;49.488;2023-09-19T05:54:59;17.03;64.85
65369;HTU21D;51970;53.484;49.488;2023-09-19T05:58:25;16.91;65.16
65369;HTU21D;51970;53.484;49.488;2023-09-19T06:01:59;16.49;66.11
65369;HTU21D;51970;53.484;49.488;2023-09-19T06:05:34;16.54;65.08
65369;HTU21D;51970;53.484;49.488;2023-09-19T06:09:07;16.96;63.88
65369;HTU21D;51970;53.484;49.488;2023-09-19T06:12:39;16.96;61.13
65369;HTU21D;51970;53.484;49.488;2023-09-19T06:16:04;16.88;61.48
65369;HTU21D;51970;53.484;49.488;2023-09-19T06:19:41;16.89;62.15
65369;HTU21D;51970;53.484;49.488;2023-09-19T06:23:18;16.90;61.41
65369;HTU21D;51970;53.484;49.488;2023-09-19T06:26:46;16.91;60.92
65369;HTU21D;51970;53.484;49.488;2023-09-19T06:30:10;16.91;60.67
65369;HTU21D;51970;53.484;49.488;2023-09-19T06:33:35;16.91;60.84
65369;HTU21D;51970;53.484;49.488;2023-09-19T06:37:08;17.15;58.11
65369;HTU21D;51970;53.484;49.488;2023-09-19T06:40:40;17.30;58.32
65369;HTU21D;51970;53.484;49.488;2023-09-19T06:44:04;16.96;57.78
65369;HTU21D;51970;53.484;49.488;2023-09-19T06:47:39;16.75;58.07
65369;HTU21D;51970;53.484;49.488;2023-09-19T06:51:15;17.49;55.11
65369;HTU21D;51970;53.484;49.488;2023-09-19T06:54:50;17.95;53.89
65369;HTU21D;51970;53.484;49.488;2023-09-19T06:58:25;18.13;54.14
65369;HTU21D;51970;53.484;49.488;2023-09-19T07:01:57;17.92;53.56
65369;HTU21D;51970;53.484;49.488;2023-09-19T07:05:34;17.43;54.63
65369;HTU21D;51970;53.484;49.488;2023-09-19T07:09:01;16.92;56.93
65369;HTU21D;51970;53.484;49.488;2023-09-19T07:12:35;16.59;57.80
65369;HTU21D;51970;53.484;49.488;2023-09-19T07:16:00;16.63;58.37
65369;HTU21D;51970;53.484;49.488;2023-09-19T07:19:36;17.10;56.00
65369;HTU21D;51970;53.484;49.488;2023-09-19T07:23:00;17.38;55.79
65369;HTU21D;51970;53.484;49.488;2023-09-19T07:26:25;18.02;54.15
65369;HTU21D;51970;53.484;49.488;2023-09-19T07:29:49;18.41;52.31
65369;HTU21D;51970;53.484;49.488;2023-09-19T07:33:23;17.77;49.85
65369;HTU21D;51970;53.484;49.488;2023-09-19T07:36:48;17.67;51.88
65369;HTU21D;51970;53.484;49.488;2023-09-19T07:40:20;17.96;50.53
65369;HTU21D;51970;53.484;49.488;2023-09-19T07:43:46;18.29;48.76
65369;HTU21D;51970;53.484;49.488;2023-09-19T07:47:10;18.68;48.95
65369;HTU21D;51970;53.484;49.488;2023-09-19T07:50:45;18.47;47.39
65369;HTU21D;51970;53.484;49.488;2023-09-19T07:54:10;17.76;48.28
65369;HTU21D;51970;53.484;49.488;2023-09-19T07:57:45;17.77;47.76
65369;HTU21D;51970;53.484;49.488;2023-09-19T08:01:21;18.14;46.86
65369;HTU21D;51970;53.484;49.488;2023-09-19T08:04:55;18.37;45.94
65369;HTU21D;51970;53.484;49.488;2023-09-19T08:08:23;18.74;44.56
65369;HTU21D;51970;53.484;49.488;2023-09-19T08:11:57;18.91;43.75
65369;HTU21D;51970;53.484;49.488;2023-09-19T08:15:22;18.87;45.70
65369;HTU21D;51970;53.484;49.488;2023-09-19T08:18:54;18.17;48.00
65369;HTU21D;51970;53.484;49.488;2023-09-19T08:22:29;17.68;49.48
65369;HTU21D;51970;53.484;49.488;2023-09-19T08:26:03;17.69;49.73
65369;HTU21D;51970;53.484;49.488;2023-09-19T08:29:35;18.19;47.95
65369;HTU21D;51970;53.484;49.488;2023-09-19T08:33:09;18.27;47.50
65369;HTU21D;51970;53.484;49.488;2023-09-19T08:36:44;18.50;46.66
65369;HTU21D;51970;53.484;49.488;2023-09-19T08:40:09;18.59;46.55
65369;HTU21D;51970;53.484;49.488;2023-09-19T08:43:44;18.54;46.30
65369;HTU21D;51970;53.484;49.488;2023-09-19T08:47:33;19.20;44.72
65369;HTU21D;51970;53.484;49.488;2023-09-19T08:51:12;19.35;43.00
65369;HTU21D;51970;53.484;49.488;2023-09-19T08:54:52;18.95;43.96
65369;HTU21D;51970;53.484;49.488;2023-09-19T08:58:29;18.72;44.80
65369;HTU21D;51970;53.484;49.488;2023-09-19T09:01:59;18.62;45.69
65369;HTU21D;51970;53.484;49.488;2023-09-19T09:05:32;18.50;45.67
65369;HTU21D;51970;53.484;49.488;2023-09-19T09:09:09;18.18;46.54
65369;HTU21D;51970;53.484;49.488;2023-09-19T09:12:43;18.02;47.16
65369;HTU21D;51970;53.484;49.488;2023-09-19T09:16:18;18.04;46.80
65369;HTU21D;51970;53.484;49.488;2023-09-19T09:19:54;18.54;46.03
65369;HTU21D;51970;53.484;49.488;2023-09-19T09:23:30;19.25;42.21
65369;HTU21D;51970;53.484;49.488;2023-09-19T09:27:04;19.27;44.11
65369;HTU21D;51970;53.484;49.488;2023-09-19T09:30:39;18.53;47.41
65369;HTU21D;51970;53.484;49.488;2023-09-19T09:34:15;18.54;47.92
65369;HTU21D;51970;53.484;49.488;2023-09-19T09:37:43;19.21;46.09
65369;HTU21D;51970;53.484;49.488;2023-09-19T09:41:11;18.91;46.72
65369;HTU21D;51970;53.484;49.488;2023-09-19T09:44:45;19.00;46.60
65369;HTU21D;51970;53.484;49.488;2023-09-19T09:48:25;18.62;48.11
65369;HTU21D;51970;53.484;49.488;2023-09-19T09:52:02;18.59;48.22
65369;HTU21D;51970;53.484;49.488;2023-09-19T09:56:07;18.38;47.87
65369;HTU21D;51970;53.484;49.488;2023-09-19T09:59:51;18.15;48.51
65369;HTU21D;51970;53.484;49.488;2023-09-19T10:03:40;18.26;47.99
65369;HTU21D;51970;53.484;49.488;2023-09-19T10:07:26;18.27;48.28
65369;HTU21D;51970;53.484;49.488;2023-09-19T10:10:53;18.30;47.56
65369;HTU21D;51970;53.484;49.488;2023-09-19T10:14:36;18.52;46.49
65369;HTU21D;51970;53.484;49.488;2023-09-19T10:18:19;18.91;45.44
65369;HTU21D;51970;53.484;49.488;2023-09-19T10:21:55;18.89;44.75
65369;HTU21D;51970;53.484;49.488;2023-09-19T10:25:30;18.39;46.06
65369;HTU21D;51970;53.484;49.488;2023-09-19T10:28:53;18.18;46.83
65369;HTU21D;51970;53.484;49.488;2023-09-19T10:32:19;18.21;47.22
65369;HTU21D;51970;53.484;49.488;2023-09-19T10:35:57;18.44;46.82
65369;HTU21D;51970;53.484;49.488;2023-09-19T10:39:31;19.05;45.07
65369;HTU21D;51970;53.484;49.488;2023-09-19T10:43:04;19.32;44.60
65369;HTU21D;51970;53.484;49.488;2023-09-19T10:46:28;19.17;43.96
65369;HTU21D;51970;53.484;49.488;2023-09-19T10:49:53;19.05;44.89
65369;HTU21D;51970;53.484;49.488;2023-09-19T10:53:29;18.73;45.36
65369;HTU21D;51970;53.484;49.488;2023-09-19T10:57:03;18.66;45.19
65369;HTU21D;51970;53.484;49.488;2023-09-19T11:00:27;18.99;44.80
65369;HTU21D;51970;53.484;49.488;2023-09-19T11:04:29;19.09;43.12
65369;HTU21D;51970;53.484;49.488;2023-09-19T11:08:01;19.27;43.26
65369;HTU21D;51970;53.484;49.488;2023-09-19T11:11:44;19.13;42.16
65369;HTU21D;51970;53.484;49.488;2023-09-19T11:19:23;19.32;43.26
65369;HTU21D;51970;53.484;49.488;2023-09-19T11:26:42;19.23;42.92
65369;HTU21D;51970;53.484;49.488;2023-09-19T11:30:26;18.59;44.03
65369;HTU21D;51970;53.484;49.488;2023-09-19T11:34:43;18.15;44.79
65369;HTU21D;51970;53.484;49.488;2023-09-19T11:38:05;18.27;44.95
65369;HTU21D;51970;53.484;49.488;2023-09-19T11:41:39;18.78;43.16
65369;HTU21D;51970;53.484;49.488;2023-09-19T11:49:15;19.20;42.75
65369;HTU21D;51970;53.484;49.488;2023-09-19T11:52:41;18.79;43.21
65369;HTU21D;51970;53.484;49.488;2023-09-19T11:56:16;18.23;44.57
65369;HTU21D;51970;53.484;49.488;2023-09-19T11:59:53;18.07;44.92
65369;HTU21D;51970;53.484;49.488;2023-09-19T12:03:21;18.28;45.10
65369;HTU21D;51970;53.484;49.488;2023-09-19T12:06:56;18.41;44.12
65369;HTU21D;51970;53.484;49.488;2023-09-19T12:10:31;18.43;43.89
65369;HTU21D;51970;53.484;49.488;2023-09-19T12:13:56;18.36;43.68
65369;HTU21D;51970;53.484;49.488;2023-09-19T12:17:38;18.27;43.87
65369;HTU21D;51970;53.484;49.488;2023-09-19T12:21:27;18.23;43.45
65369;HTU21D;51970;53.484;49.488;2023-09-19T12:25:05;18.19;44.34
65369;HTU21D;51970;53.484;49.488;2023-09-19T12:28:44;18.14;44.48
65369;HTU21D;51970;53.484;49.488;2023-09-19T12:32:10;17.99;44.35
65369;HTU21D;51970;53.484;49.488;2023-09-19T12:35:42;17.87;45.41
65369;HTU21D;51970;53.484;49.488;2023-09-19T12:39:24;17.92;44.88
65369;HTU21D;51970;53.484;49.488;2023-09-19T12:42:59;17.96;44.67
65369;HTU21D;51970;53.484;49.488;2023-09-19T12:46:24;17.96;44.51
65369;HTU21D;51970;53.484;49.488;2023-09-19T12:50:14;17.89;44.29
65369;HTU21D;51970;53.484;49.488;2023-09-19T12:53:46;17.75;44.42
65369;HTU21D;51970;53.484;49.488;2023-09-19T12:57:24;17.66;44.82
65369;HTU21D;51970;53.484;49.488;2023-09-19T13:01:02;17.65;45.38
65369;HTU21D;51970;53.484;49.488;2023-09-19T13:04:36;17.66;45.31
65369;HTU21D;51970;53.484;49.488;2023-09-19T13:08:23;17.60;45.41
65369;HTU21D;51970;53.484;49.488;2023-09-19T13:11:58;17.55;45.57
65369;HTU21D;51970;53.484;49.488;2023-09-19T13:15:25;17.53;45.24
65369;HTU21D;51970;53.484;49.488;2023-09-19T13:19:00;17.46;45.00
65369;HTU21D;51970;53.484;49.488;2023-09-19T13:22:40;17.43;45.39
65369;HTU21D;51970;53.484;49.488;2023-09-19T13:26:22;17.41;44.46
65369;HTU21D;51970;53.484;49.488;2023-09-19T13:29:46;17.32;44.14
65369;HTU21D;51970;53.484;49.488;2023-09-19T13:33:21;17.30;45.12
65369;HTU21D;51970;53.484;49.488;2023-09-19T13:36:53;17.24;45.95
65369;HTU21D;51970;53.484;49.488;2023-09-19T13:40:18;17.14;46.56
65369;HTU21D;51970;53.484;49.488;2023-09-19T13:43:56;17.01;46.67
65369;HTU21D;51970;53.484;49.488;2023-09-19T13:47:30;16.93;46.93
65369;HTU21D;51970;53.484;49.488;2023-09-19T13:51:03;16.85;47.24
65369;HTU21D;51970;53.484;49.488;2023-09-19T13:54:38;16.81;47.43
65369;HTU21D;51970;53.484;49.488;2023-09-19T13:58:03;16.75;47.84
65369;HTU21D;51970;53.484;49.488;2023-09-19T14:01:39;16.67;47.76
65369;HTU21D;51970;53.484;49.488;2023-09-19T14:05:03;16.58;48.11
65369;HTU21D;51970;53.484;49.488;2023-09-19T14:08:30;16.51;48.43
65369;HTU21D;51970;53.484;49.488;2023-09-19T14:12:06;16.42;48.99
65369;HTU21D;51970;53.484;49.488;2023-09-19T14:15:30;16.34;49.38
65369;HTU21D;51970;53.484;49.488;2023-09-19T14:19:05;16.25;50.20
65369;HTU21D;51970;53.484;49.488;2023-09-19T14:22:38;16.16;50.53
65369;HTU21D;51970;53.484;49.488;2023-09-19T14:26:10;16.11;51.01
65369;HTU21D;51970;53.484;49.488;2023-09-19T14:29:36;16.03;51.77
65369;HTU21D;51970;53.484;49.488;2023-09-19T14:33:00;15.91;51.96
65369;HTU21D;51970;53.484;49.488;2023-09-19T14:36:24;15.88;52.32
65369;HTU21D;51970;53.484;49.488;2023-09-19T14:39:49;15.78;52.73
65369;HTU21D;51970;53.484;49.488;2023-09-19T14:43:21;15.68;53.17
65369;HTU21D;51970;53.484;49.488;2023-09-19T14:46:55;15.57;53.81
65369;HTU21D;51970;53.484;49.488;2023-09-19T14:50:20;15.49;53.72
65369;HTU21D;51970;53.484;49.488;2023-09-19T14:53:54;15.41;54.17
65369;HTU21D;51970;53.484;49.488;2023-09-19T14:57:27;15.30;54.62
65369;HTU21D;51970;53.484;49.488;2023-09-19T15:01:11;15.18;54.99
65369;HTU21D;51970;53.484;49.488;2023-09-19T15:04:36;15.13;54.91
65369;HTU21D;51970;53.484;49.488;2023-09-19T15:08:11;15.10;55.36
65369;HTU21D;51970;53.484;49.488;2023-09-19T15:11:35;14.98;55.62
65369;HTU21D;51970;53.484;49.488;2023-09-19T15:15:07;14.88;56.27
65369;HTU21D;51970;53.484;49.488;2023-09-19T15:18:41;14.81;56.45
65369;HTU21D;51970;53.484;49.488;2023-09-19T15:22:13;14.75;56.57
65369;HTU21D;51970;53.484;49.488;2023-09-19T15:25:38;14.70;56.57
65369;HTU21D;51970;53.484;49.488;2023-09-19T15:29:13;14.67;56.67
65369;HTU21D;51970;53.484;49.488;2023-09-19T15:32:45;14.55;57.32
65369;HTU21D;51970;53.484;49.488;2023-09-19T15:36:19;14.45;57.89
65369;HTU21D;51970;53.484;49.488;2023-09-19T15:39:43;14.41;58.00
65369;HTU21D;51970;53.484;49.488;2023-09-19T15:43:07;14.33;58.43
65369;HTU21D;51970;53.484;49.488;2023-09-19T15:46:33;14.23;58.83
65369;HTU21D;51970;53.484;49.488;2023-09-19T15:50:05;14.15;59.12
65369;HTU21D;51970;53.484;49.488;2023-09-19T15:53:52;14.11;59.34
65369;HTU21D;51970;53.484;49.488;2023-09-19T15:57:17;14.05;59.57
65369;HTU21D;51970;53.484;49.488;2023-09-19T16:00:41;13.99;59.93
65369;HTU21D;51970;53.484;49.488;2023-09-19T16:04:13;13.95;60.21
65369;HTU21D;51970;53.484;49.488;2023-09-19T16:07:37;13.95;60.22
65369;HTU21D;51970;53.484;49.488;2023-09-19T16:11:10;13.73;61.95
65369;HTU21D;51970;53.484;49.488;2023-09-19T16:14:35;13.48;63.10
65369;HTU21D;51970;53.484;49.488;2023-09-19T16:17:59;13.31;64.03
65369;HTU21D;51970;53.484;49.488;2023-09-19T16:21:25;13.21;64.50
65369;HTU21D;51970;53.484;49.488;2023-09-19T16:24:50;13.11;64.76
65369;HTU21D;51970;53.484;49.488;2023-09-19T16:28:14;13.02;66.01
65369;HTU21D;51970;53.484;49.488;2023-09-19T16:31:47;12.92;65.48
65369;HTU21D;51970;53.484;49.488;2023-09-19T16:35:14;12.86;65.75
65369;HTU21D;51970;53.484;49.488;2023-09-19T16:38:38;12.82;66.18
65369;HTU21D;51970;53.484;49.488;2023-09-19T16:42:11;12.74;67.01
65369;HTU21D;51970;53.484;49.488;2023-09-19T16:45:35;12.74;66.98
65369;HTU21D;51970;53.484;49.488;2023-09-19T16:49:00;12.67;67.34
65369;HTU21D;51970;53.484;49.488;2023-09-19T16:52:24;12.69;66.34
65369;HTU21D;51970;53.484;49.488;2023-09-19T16:56:07;12.75;65.46
65369;HTU21D;51970;53.484;49.488;2023-09-19T16:59:33;12.74;65.82
65369;HTU21D;51970;53.484;49.488;2023-09-19T17:02:48;12.65;66.38
65369;HTU21D;51970;53.484;49.488;2023-09-19T17:05:59;12.43;69.19
65369;HTU21D;51970;53.484;49.488;2023-09-19T17:08:31;12.22;70.46
65369;HTU21D;51970;53.484;49.488;2023-09-19T17:11:04;12.07;71.06
65369;HTU21D;51970;53.484;49.488;2023-09-19T17:13:32;11.90;71.79
65369;HTU21D;51970;53.484;49.488;2023-09-19T17:16:53;11.75;72.39
65369;HTU21D;51970;53.484;49.488;2023-09-19T17:20:26;11.62;72.54
65369;HTU21D;51970;53.484;49.488;2023-09-19T17:23:50;11.57;72.40
65369;HTU21D;51970;53.484;49.488;2023-09-19T17:27:15;11.49;71.71
65369;HTU21D;51970;53.484;49.488;2023-09-19T17:30:47;11.45;71.36
65369;HTU21D;51970;53.484;49.488;2023-09-19T17:34:12;11.40;70.87
65369;HTU21D;51970;53.484;49.488;2023-09-19T17:37:37;11.45;70.60
65369;HTU21D;51970;53.484;49.488;2023-09-19T17:41:09;11.46;70.57
65369;HTU21D;51970;53.484;49.488;2023-09-19T17:44:33;11.44;71.68
65369;HTU21D;51970;53.484;49.488;2023-09-19T17:48:08;11.37;72.38
65369;HTU21D;51970;53.484;49.488;2023-09-19T17:51:32;11.28;73.66
65369;HTU21D;51970;53.484;49.488;2023-09-19T17:55:07;11.25;72.88
65369;HTU21D;51970;53.484;49.488;2023-09-19T17:58:45;11.19;72.70
65369;HTU21D;51970;53.484;49.488;2023-09-19T18:02:12;11.15;73.97
65369;HTU21D;51970;53.484;49.488;2023-09-19T18:05:36;11.11;74.38
65369;HTU21D;51970;53.484;49.488;2023-09-19T18:09:01;10.98;73.68
65369;HTU21D;51970;53.484;49.488;2023-09-19T18:12:26;10.92;74.06
65369;HTU21D;51970;53.484;49.488;2023-09-19T18:15:50;10.85;75.25
65369;HTU21D;51970;53.484;49.488;2023-09-19T18:19:14;10.80;75.31
65369;HTU21D;51970;53.484;49.488;2023-09-19T18:22:40;10.75;76.02
65369;HTU21D;51970;53.484;49.488;2023-09-19T18:26:12;10.67;76.29
65369;HTU21D;51970;53.484;49.488;2023-09-19T18:29:36;10.59;76.86
65369;HTU21D;51970;53.484;49.488;2023-09-19T18:33:03;10.48;77.03
65369;HTU21D;51970;53.484;49.488;2023-09-19T18:36:36;10.36;75.83
65369;HTU21D;51970;53.484;49.488;2023-09-19T18:40:00;10.27;76.79
65369;HTU21D;51970;53.484;49.488;2023-09-19T18:43:28;10.15;76.90
65369;HTU21D;51970;53.484;49.488;2023-09-19T18:46:54;10.08;76.57
65369;HTU21D;51970;53.484;49.488;2023-09-19T18:50:20;9.97;76.53
65369;HTU21D;51970;53.484;49.488;2023-09-19T18:53:54;9.90;76.80
65369;HTU21D;51970;53.484;49.488;2023-09-19T18:57:28;9.81;76.84
65369;HTU21D;51970;53.484;49.488;2023-09-19T19:01:00;9.72;76.30
65369;HTU21D;51970;53.484;49.488;2023-09-19T19:04:35;9.63;76.80
65369;HTU21D;51970;53.484;49.488;2023-09-19T19:08:07;9.49;76.79
65369;HTU21D;51970;53.484;49.488;2023-09-19T19:11:31;9.48;77.08
65369;HTU21D;51970;53.484;49.488;2023-09-19T19:14:57;9.40;77.14
65369;HTU21D;51970;53.484;49.488;2023-09-19T19:18:29;9.32;77.49
65369;HTU21D;51970;53.484;49.488;2023-09-19T19:21:53;9.30;76.81
65369;HTU21D;51970;53.484;49.488;2023-09-19T19:25:26;9.26;77.26
65369;HTU21D;51970;53.484;49.488;2023-09-19T19:29:00;9.24;77.02
65369;HTU21D;51970;53.484;49.488;2023-09-19T19:32:33;9.12;76.18
65369;HTU21D;51970;53.484;49.488;2023-09-19T19:36:09;9.06;76.55
65369;HTU21D;51970;53.484;49.488;2023-09-19T19:39:41;9.04;77.01
65369;HTU21D;51970;53.484;49.488;2023-09-19T19:43:15;9.02;76.95
65369;HTU21D;51970;53.484;49.488;2023-09-19T19:46:50;9.05;77.32
65369;HTU21D;51970;53.484;49.488;2023-09-19T19:50:14;9.06;77.50
65369;HTU21D;51970;53.484;49.488;2023-09-19T19:53:49;9.03;77.28
65369;HTU21D;51970;53.484;49.488;2023-09-19T19:57:24;9.06;77.18
65369;HTU21D;51970;53.484;49.488;2023-09-19T20:00:49;9.10;77.36
65369;HTU21D;51970;53.484;49.488;2023-09-19T20:04:21;9.14;77.59
65369;HTU21D;51970;53.484;49.488;2023-09-19T20:07:53;9.11;76.98
65369;HTU21D;51970;53.484;49.488;2023-09-19T20:11:18;9.04;77.07
65369;HTU21D;51970;53.484;49.488;2023-09-19T20:14:45;9.01;77.83
65369;HTU21D;51970;53.484;49.488;2023-09-19T20:18:18;8.98;78.53
65369;HTU21D;51970;53.484;49.488;2023-09-19T20:21:42;8.94;78.74
65369;HTU21D;51970;53.484;49.488;2023-09-19T20:25:07;8.90;79.07
65369;HTU21D;51970;53.484;49.488;2023-09-19T20:28:34;8.83;80.15
65369;HTU21D;51970;53.484;49.488;2023-09-19T20:31:58;8.71;80.75
65369;HTU21D;51970;53.484;49.488;2023-09-19T20:35:22;8.55;80.24
65369;HTU21D;51970;53.484;49.488;2023-09-19T20:38:47;8.46;80.39
65369;HTU21D;51970;53.484;49.488;2023-09-19T20:42:12;8.45;81.13
65369;HTU21D;51970;53.484;49.488;2023-09-19T20:45:38;8.47;80.59
65369;HTU21D;51970;53.484;49.488;2023-09-19T20:49:12;8.51;80.40
65369;HTU21D;51970;53.484;49.488;2023-09-19T20:52:37;8.51;79.27
65369;HTU21D;51970;53.484;49.488;2023-09-19T20:56:13;8.50;79.38
65369;HTU21D;51970;53.484;49.488;2023-09-19T20:59:37;8.52;79.62
65369;HTU21D;51970;53.484;49.488;2023-09-19T21:03:09;8.48;80.32
65369;HTU21D;51970;53.484;49.488;2023-09-19T21:06:33;8.42;80.44
65369;HTU21D;51970;53.484;49.488;2023-09-19T21:09:57;8.33;80.83
65369;HTU21D;51970;53.484;49.488;2023-09-19T21:13:22;8.23;80.00
65369;HTU21D;51970;53.484;49.488;2023-09-19T21:16:46;8.15;79.43
65369;HTU21D;51970;53.484;49.488;2023-09-19T21:20:11;8.15;79.79
65369;HTU21D;51970;53.484;49.488;2023-09-19T21:23:40;8.11;79.88
65369;HTU21D;51970;53.484;49.488;2023-09-19T21:27:12;8.08;80.19
65369;HTU21D;51970;53.484;49.488;2023-09-19T21:30:44;8.03;78.93
65369;HTU21D;51970;53.484;49.488;2023-09-19T21:34:16;7.98;79.46
65369;HTU21D;51970;53.484;49.488;2023-09-19T21:37:40;8.00;80.57
65369;HTU21D;51970;53.484;49.488;2023-09-19T21:41:12;7.94;80.57
65369;HTU21D;51970;53.484;49.488;2023-09-19T21:44:36;7.93;80.98
65369;HTU21D;51970;53.484;49.488;2023-09-19T21:48:04;7.90;80.74
65369;HTU21D;51970;53.484;49.488;2023-09-19T21:51:36;7.81;81.22
65369;HTU21D;51970;53.484;49.488;2023-09-19T21:55:01;7.76;81.01
65369;HTU21D;51970;53.484;49.488;2023-09-19T21:58:25;7.74;80.38
65369;HTU21D;51970;53.484;49.488;2023-09-19T22:01:51;7.69;80.20